sensor_id;sensor_type;location;lat;lon;timestamp;P1;durP1;ratioP1;P2;durP2;ratioP2
33826;SDS011;20128;45.582;5.298;2022-11-10T00:02:13;41.20;;;19.83;;
33826;SDS011;20128;45.582;5.298;2022-11-10T00:04:38;42.08;;;17.98;;
33826;SDS011;20128;45.582;5.298;2022-11-10T00:07:05;41.15;;;18.58;;
33826;SDS011;20128;45.582;5.298;2022-11-10T00:09:31;36.42;;;17.40;;
33826;SDS011;20128;45.582;5.298;2022-11-10T00:11:58;37.05;;;17.38;;
33826;SDS011;20128;45.582;5.298;2022-11-10T00:14:23;31.92;;;15.18;;
33826;SDS011;20128;45.582;5.298;2022-11-10T00:17:11;30.90;;;14.40;;
33826;SDS011;20128;45.582;5.298;2022-11-10T00:19:36;29.42;;;14.10;;
33826;SDS011;20128;45.582;5.298;2022-11-10T00:22:02;41.33;;;17.08;;
33826;SDS011;20128;45.582;5.298;2022-11-10T00:24:28;46.08;;;17.67;;
33826;SDS011;20128;45.582;5.298;2022-11-10T00:26:54;47.17;;;19.02;;
33826;SDS011;20128;45.582;5.298;2022-11-10T00:29:20;52.13;;;19.77;;
33826;SDS011;20128;45.582;5.298;2022-11-10T00:31:46;46.88;;;21.15;;
33826;SDS011;20128;45.582;5.298;2022-11-10T00:34:15;56.03;;;20.38;;
33826;SDS011;20128;45.582;5.298;2022-11-10T00:36:41;54.42;;;20.50;;
33826;SDS011;20128;45.582;5.298;2022-11-10T00:39:08;99.55;;;22.65;;
33826;SDS011;20128;45.582;5.298;2022-11-10T00:41:34;98.65;;;23.85;;
33826;SDS011;20128;45.582;5.298;2022-11-10T00:44:00;61.50;;;23.40;;
33826;SDS011;20128;45.582;5.298;2022-11-10T00:46:26;52.88;;;21.63;;
33826;SDS011;20128;45.582;5.298;2022-11-10T00:48:52;79.63;;;22.90;;
33826;SDS011;20128;45.582;5.298;2022-11-10T00:51:25;66.68;;;26.35;;
33826;SDS011;20128;45.582;5.298;2022-11-10T00:53:53;82.03;;;22.52;;
33826;SDS011;20128;45.582;5.298;2022-11-10T00:56:20;55.35;;;20.45;;
33826;SDS011;20128;45.582;5.298;2022-11-10T00:58:47;47.47;;;20.50;;
33826;SDS011;20128;45.582;5.298;2022-11-10T01:01:13;54.17;;;19.85;;
33826;SDS011;20128;45.582;5.298;2022-11-10T01:03:39;46.97;;;19.88;;
33826;SDS011;20128;45.582;5.298;2022-11-10T01:06:06;47.30;;;21.13;;
33826;SDS011;20128;45.582;5.298;2022-11-10T01:08:36;64.25;;;23.27;;
33826;SDS011;20128;45.582;5.298;2022-11-10T01:11:03;55.47;;;22.30;;
33826;SDS011;20128;45.582;5.298;2022-11-10T01:13:34;62.75;;;25.50;;
33826;SDS011;20128;45.582;5.298;2022-11-10T01:16:11;74.05;;;27.70;;
33826;SDS011;20128;45.582;5.298;2022-11-10T01:18:39;63.72;;;23.83;;
33826;SDS011;20128;45.582;5.298;2022-11-10T01:21:05;55.28;;;23.27;;
33826;SDS011;20128;45.582;5.298;2022-11-10T01:23:31;67.68;;;26.42;;
33826;SDS011;20128;45.582;5.298;2022-11-10T01:26:01;61.88;;;24.92;;
33826;SDS011;20128;45.582;5.298;2022-11-10T01:28:28;49.70;;;22.83;;
33826;SDS011;20128;45.582;5.298;2022-11-10T01:30:58;53.35;;;22.05;;
33826;SDS011;20128;45.582;5.298;2022-11-10T01:33:25;60.15;;;23.60;;
33826;SDS011;20128;45.582;5.298;2022-11-10T01:35:51;64.10;;;24.05;;
33826;SDS011;20128;45.582;5.298;2022-11-10T01:38:16;52.78;;;24.05;;
33826;SDS011;20128;45.582;5.298;2022-11-10T01:40:42;46.28;;;21.75;;
33826;SDS011;20128;45.582;5.298;2022-11-10T01:43:08;43.42;;;21.08;;
33826;SDS011;20128;45.582;5.298;2022-11-10T01:45:41;44.33;;;21.23;;
33826;SDS011;20128;45.582;5.298;2022-11-10T01:48:14;40.60;;;20.33;;
33826;SDS011;20128;45.582;5.298;2022-11-10T01:50:43;33.85;;;18.65;;
33826;SDS011;20128;45.582;5.298;2022-11-10T01:53:15;35.45;;;17.67;;
33826;SDS011;20128;45.582;5.298;2022-11-10T01:55:48;31.25;;;17.23;;
33826;SDS011;20128;45.582;5.298;2022-11-10T01:58:16;32.17;;;18.55;;
33826;SDS011;20128;45.582;5.298;2022-11-10T02:00:47;28.38;;;17.38;;
33826;SDS011;20128;45.582;5.298;2022-11-10T02:03:22;38.72;;;18.02;;
33826;SDS011;20128;45.582;5.298;2022-11-10T02:06:04;31.90;;;17.33;;
33826;SDS011;20128;45.582;5.298;2022-11-10T02:08:31;28.15;;;16.20;;
33826;SDS011;20128;45.582;5.298;2022-11-10T02:10:57;25.48;;;15.00;;
33826;SDS011;20128;45.582;5.298;2022-11-10T02:13:22;31.35;;;15.50;;
33826;SDS011;20128;45.582;5.298;2022-11-10T02:15:49;23.60;;;16.00;;
33826;SDS011;20128;45.582;5.298;2022-11-10T02:18:14;25.52;;;15.75;;
33826;SDS011;20128;45.582;5.298;2022-11-10T02:20:44;28.33;;;15.70;;
33826;SDS011;20128;45.582;5.298;2022-11-10T02:23:14;25.30;;;15.40;;
33826;SDS011;20128;45.582;5.298;2022-11-10T02:25:55;26.40;;;15.10;;
33826;SDS011;20128;45.582;5.298;2022-11-10T02:28:22;22.83;;;15.30;;
33826;SDS011;20128;45.582;5.298;2022-11-10T02:30:49;24.67;;;14.52;;
33826;SDS011;20128;45.582;5.298;2022-11-10T02:33:14;26.15;;;16.02;;
33826;SDS011;20128;45.582;5.298;2022-11-10T02:35:42;26.15;;;16.08;;
33826;SDS011;20128;45.582;5.298;2022-11-10T02:38:08;23.75;;;15.50;;
33826;SDS011;20128;45.582;5.298;2022-11-10T02:40:34;28.67;;;16.33;;
33826;SDS011;20128;45.582;5.298;2022-11-10T02:42:59;29.27;;;17.20;;
33826;SDS011;20128;45.582;5.298;2022-11-10T02:45:25;27.77;;;16.67;;
33826;SDS011;20128;45.582;5.298;2022-11-10T02:47:51;27.20;;;15.00;;
33826;SDS011;20128;45.582;5.298;2022-11-10T02:50:17;25.17;;;14.00;;
33826;SDS011;20128;45.582;5.298;2022-11-10T02:52:42;27.15;;;15.95;;
33826;SDS011;20128;45.582;5.298;2022-11-10T02:55:08;26.02;;;16.13;;
33826;SDS011;20128;45.582;5.298;2022-11-10T02:57:34;28.27;;;14.52;;
33826;SDS011;20128;45.582;5.298;2022-11-10T03:00:00;28.35;;;15.82;;
33826;SDS011;20128;45.582;5.298;2022-11-10T03:02:28;26.70;;;13.60;;
33826;SDS011;20128;45.582;5.298;2022-11-10T03:04:53;29.45;;;14.80;;
33826;SDS011;20128;45.582;5.298;2022-11-10T03:07:19;24.95;;;14.07;;
33826;SDS011;20128;45.582;5.298;2022-11-10T03:09:45;24.83;;;13.65;;
33826;SDS011;20128;45.582;5.298;2022-11-10T03:12:10;25.50;;;13.20;;
33826;SDS011;20128;45.582;5.298;2022-11-10T03:14:36;27.30;;;13.80;;
33826;SDS011;20128;45.582;5.298;2022-11-10T03:17:01;22.45;;;12.57;;
33826;SDS011;20128;45.582;5.298;2022-11-10T03:19:27;20.10;;;11.65;;
33826;SDS011;20128;45.582;5.298;2022-11-10T03:21:53;20.92;;;11.45;;
33826;SDS011;20128;45.582;5.298;2022-11-10T03:24:18;19.88;;;12.02;;
33826;SDS011;20128;45.582;5.298;2022-11-10T03:26:45;23.33;;;12.07;;
33826;SDS011;20128;45.582;5.298;2022-11-10T03:29:10;28.65;;;12.80;;
33826;SDS011;20128;45.582;5.298;2022-11-10T03:31:36;20.15;;;10.02;;
33826;SDS011;20128;45.582;5.298;2022-11-10T03:34:02;20.67;;;10.25;;
33826;SDS011;20128;45.582;5.298;2022-11-10T03:36:28;19.75;;;10.77;;
33826;SDS011;20128;45.582;5.298;2022-11-10T03:38:54;17.67;;;9.45;;
33826;SDS011;20128;45.582;5.298;2022-11-10T03:41:21;19.77;;;9.60;;
33826;SDS011;20128;45.582;5.298;2022-11-10T03:43:46;15.02;;;9.30;;
33826;SDS011;20128;45.582;5.298;2022-11-10T03:46:13;18.92;;;8.75;;
33826;SDS011;20128;45.582;5.298;2022-11-10T03:48:39;14.48;;;8.55;;
33826;SDS011;20128;45.582;5.298;2022-11-10T03:51:05;16.55;;;8.38;;
33826;SDS011;20128;45.582;5.298;2022-11-10T03:53:31;14.32;;;7.05;;
33826;SDS011;20128;45.582;5.298;2022-11-10T03:56:00;15.32;;;6.65;;
33826;SDS011;20128;45.582;5.298;2022-11-10T03:58:26;12.50;;;7.05;;
33826;SDS011;20128;45.582;5.298;2022-11-10T04:00:52;12.77;;;7.25;;
33826;SDS011;20128;45.582;5.298;2022-11-10T04:03:18;17.02;;;7.75;;
33826;SDS011;20128;45.582;5.298;2022-11-10T04:05:44;14.52;;;7.90;;
33826;SDS011;20128;45.582;5.298;2022-11-10T04:08:29;18.15;;;7.80;;
33826;SDS011;20128;45.582;5.298;2022-11-10T04:13:59;17.20;;;7.70;;
33826;SDS011;20128;45.582;5.298;2022-11-10T04:16:43;11.85;;;6.57;;
33826;SDS011;20128;45.582;5.298;2022-11-10T04:19:08;12.35;;;7.63;;
33826;SDS011;20128;45.582;5.298;2022-11-10T04:21:34;14.50;;;7.43;;
33826;SDS011;20128;45.582;5.298;2022-11-10T04:24:00;21.85;;;8.07;;
33826;SDS011;20128;45.582;5.298;2022-11-10T04:26:25;14.93;;;6.95;;
33826;SDS011;20128;45.582;5.298;2022-11-10T04:28:55;10.82;;;6.47;;
33826;SDS011;20128;45.582;5.298;2022-11-10T04:31:26;12.70;;;7.20;;
33826;SDS011;20128;45.582;5.298;2022-11-10T04:33:54;9.68;;;5.90;;
33826;SDS011;20128;45.582;5.298;2022-11-10T04:36:21;11.52;;;5.68;;
33826;SDS011;20128;45.582;5.298;2022-11-10T04:38:49;12.18;;;5.55;;
33826;SDS011;20128;45.582;5.298;2022-11-10T04:41:15;14.30;;;5.55;;
33826;SDS011;20128;45.582;5.298;2022-11-10T04:43:40;11.88;;;5.55;;
33826;SDS011;20128;45.582;5.298;2022-11-10T04:46:08;9.68;;;5.63;;
33826;SDS011;20128;45.582;5.298;2022-11-10T04:48:47;10.85;;;4.97;;
33826;SDS011;20128;45.582;5.298;2022-11-10T04:51:13;7.57;;;5.43;;
33826;SDS011;20128;45.582;5.298;2022-11-10T04:53:40;10.63;;;5.28;;
33826;SDS011;20128;45.582;5.298;2022-11-10T04:56:06;14.90;;;5.70;;
33826;SDS011;20128;45.582;5.298;2022-11-10T04:58:34;10.65;;;5.60;;
33826;SDS011;20128;45.582;5.298;2022-11-10T05:01:00;15.10;;;5.90;;
33826;SDS011;20128;45.582;5.298;2022-11-10T05:03:26;13.10;;;5.72;;
33826;SDS011;20128;45.582;5.298;2022-11-10T05:05:51;17.92;;;6.50;;
33826;SDS011;20128;45.582;5.298;2022-11-10T05:08:17;14.00;;;6.20;;
33826;SDS011;20128;45.582;5.298;2022-11-10T05:10:43;18.25;;;6.03;;
33826;SDS011;20128;45.582;5.298;2022-11-10T05:13:08;21.00;;;5.70;;
33826;SDS011;20128;45.582;5.298;2022-11-10T05:15:35;13.52;;;5.60;;
33826;SDS011;20128;45.582;5.298;2022-11-10T05:18:03;15.10;;;5.45;;
33826;SDS011;20128;45.582;5.298;2022-11-10T05:20:29;15.13;;;5.60;;
33826;SDS011;20128;45.582;5.298;2022-11-10T05:22:55;13.10;;;5.22;;
33826;SDS011;20128;45.582;5.298;2022-11-10T05:28:06;15.68;;;4.97;;
33826;SDS011;20128;45.582;5.298;2022-11-10T05:30:33;17.35;;;6.15;;
33826;SDS011;20128;45.582;5.298;2022-11-10T05:32:59;16.92;;;6.25;;
33826;SDS011;20128;45.582;5.298;2022-11-10T05:35:26;19.88;;;6.00;;
33826;SDS011;20128;45.582;5.298;2022-11-10T05:37:52;15.68;;;5.75;;
33826;SDS011;20128;45.582;5.298;2022-11-10T05:40:18;17.83;;;6.85;;
33826;SDS011;20128;45.582;5.298;2022-11-10T05:42:44;19.23;;;6.25;;
33826;SDS011;20128;45.582;5.298;2022-11-10T05:45:11;15.32;;;5.35;;
33826;SDS011;20128;45.582;5.298;2022-11-10T05:47:38;15.07;;;5.82;;
33826;SDS011;20128;45.582;5.298;2022-11-10T05:50:04;10.45;;;5.43;;
33826;SDS011;20128;45.582;5.298;2022-11-10T05:52:33;15.40;;;5.85;;
33826;SDS011;20128;45.582;5.298;2022-11-10T05:54:59;14.05;;;6.07;;
33826;SDS011;20128;45.582;5.298;2022-11-10T05:57:25;15.43;;;6.32;;
33826;SDS011;20128;45.582;5.298;2022-11-10T05:59:51;35.15;;;7.53;;
33826;SDS011;20128;45.582;5.298;2022-11-10T06:02:17;20.33;;;6.85;;
33826;SDS011;20128;45.582;5.298;2022-11-10T06:04:42;13.10;;;7.13;;
33826;SDS011;20128;45.582;5.298;2022-11-10T06:07:08;20.38;;;8.38;;
33826;SDS011;20128;45.582;5.298;2022-11-10T06:09:37;20.13;;;9.10;;
33826;SDS011;20128;45.582;5.298;2022-11-10T06:12:03;19.33;;;9.18;;
33826;SDS011;20128;45.582;5.298;2022-11-10T06:14:29;21.50;;;10.70;;
33826;SDS011;20128;45.582;5.298;2022-11-10T06:16:54;19.55;;;11.35;;
33826;SDS011;20128;45.582;5.298;2022-11-10T06:19:20;28.55;;;10.30;;
33826;SDS011;20128;45.582;5.298;2022-11-10T06:21:46;24.77;;;10.68;;
33826;SDS011;20128;45.582;5.298;2022-11-10T06:24:11;53.65;;;11.05;;
33826;SDS011;20128;45.582;5.298;2022-11-10T06:26:38;15.52;;;8.82;;
33826;SDS011;20128;45.582;5.298;2022-11-10T06:29:04;16.98;;;9.27;;
33826;SDS011;20128;45.582;5.298;2022-11-10T06:31:29;15.55;;;8.75;;
33826;SDS011;20128;45.582;5.298;2022-11-10T06:33:55;22.50;;;8.90;;
33826;SDS011;20128;45.582;5.298;2022-11-10T06:36:21;20.17;;;8.23;;
33826;SDS011;20128;45.582;5.298;2022-11-10T06:38:47;19.92;;;10.70;;
33826;SDS011;20128;45.582;5.298;2022-11-10T06:41:12;18.83;;;9.60;;
33826;SDS011;20128;45.582;5.298;2022-11-10T06:43:38;17.90;;;9.55;;
33826;SDS011;20128;45.582;5.298;2022-11-10T06:46:04;18.85;;;10.23;;
33826;SDS011;20128;45.582;5.298;2022-11-10T06:48:29;16.60;;;9.35;;
33826;SDS011;20128;45.582;5.298;2022-11-10T06:50:58;19.42;;;9.52;;
33826;SDS011;20128;45.582;5.298;2022-11-10T06:53:24;25.50;;;10.85;;
33826;SDS011;20128;45.582;5.298;2022-11-10T06:55:53;29.08;;;10.80;;
33826;SDS011;20128;45.582;5.298;2022-11-10T06:58:19;30.70;;;10.60;;
33826;SDS011;20128;45.582;5.298;2022-11-10T07:00:45;22.90;;;9.70;;
33826;SDS011;20128;45.582;5.298;2022-11-10T07:03:11;17.67;;;10.13;;
33826;SDS011;20128;45.582;5.298;2022-11-10T07:05:38;25.15;;;11.00;;
33826;SDS011;20128;45.582;5.298;2022-11-10T07:08:05;23.83;;;10.40;;
33826;SDS011;20128;45.582;5.298;2022-11-10T07:10:34;21.45;;;10.02;;
33826;SDS011;20128;45.582;5.298;2022-11-10T07:13:00;25.52;;;9.60;;
33826;SDS011;20128;45.582;5.298;2022-11-10T07:15:27;28.35;;;11.52;;
33826;SDS011;20128;45.582;5.298;2022-11-10T07:17:53;23.35;;;10.18;;
33826;SDS011;20128;45.582;5.298;2022-11-10T07:20:19;26.10;;;11.55;;
33826;SDS011;20128;45.582;5.298;2022-11-10T07:22:44;29.58;;;10.23;;
33826;SDS011;20128;45.582;5.298;2022-11-10T07:25:10;22.33;;;9.25;;
33826;SDS011;20128;45.582;5.298;2022-11-10T07:27:36;20.80;;;9.05;;
33826;SDS011;20128;45.582;5.298;2022-11-10T07:30:02;12.60;;;8.23;;
33826;SDS011;20128;45.582;5.298;2022-11-10T07:32:29;16.92;;;8.93;;
33826;SDS011;20128;45.582;5.298;2022-11-10T07:34:55;14.82;;;8.00;;
33826;SDS011;20128;45.582;5.298;2022-11-10T07:37:20;13.32;;;6.85;;
33826;SDS011;20128;45.582;5.298;2022-11-10T07:39:46;14.80;;;7.28;;
33826;SDS011;20128;45.582;5.298;2022-11-10T07:42:12;13.40;;;8.00;;
33826;SDS011;20128;45.582;5.298;2022-11-10T07:44:37;20.10;;;8.23;;
33826;SDS011;20128;45.582;5.298;2022-11-10T07:47:03;16.75;;;7.63;;
33826;SDS011;20128;45.582;5.298;2022-11-10T07:49:29;14.10;;;6.63;;
33826;SDS011;20128;45.582;5.298;2022-11-10T07:51:55;9.02;;;6.05;;
33826;SDS011;20128;45.582;5.298;2022-11-10T07:54:20;15.65;;;8.13;;
33826;SDS011;20128;45.582;5.298;2022-11-10T07:56:46;12.77;;;6.35;;
33826;SDS011;20128;45.582;5.298;2022-11-10T07:59:12;11.25;;;6.88;;
33826;SDS011;20128;45.582;5.298;2022-11-10T08:01:38;14.48;;;6.78;;
33826;SDS011;20128;45.582;5.298;2022-11-10T08:04:03;11.57;;;6.65;;
33826;SDS011;20128;45.582;5.298;2022-11-10T08:06:32;12.23;;;6.63;;
33826;SDS011;20128;45.582;5.298;2022-11-10T08:08:57;16.83;;;6.32;;
33826;SDS011;20128;45.582;5.298;2022-11-10T08:11:23;15.30;;;8.07;;
33826;SDS011;20128;45.582;5.298;2022-11-10T08:13:49;16.27;;;7.68;;
33826;SDS011;20128;45.582;5.298;2022-11-10T08:16:14;25.13;;;8.90;;
33826;SDS011;20128;45.582;5.298;2022-11-10T08:18:40;15.07;;;8.10;;
33826;SDS011;20128;45.582;5.298;2022-11-10T08:21:07;16.02;;;8.40;;
33826;SDS011;20128;45.582;5.298;2022-11-10T08:23:32;14.93;;;7.75;;
33826;SDS011;20128;45.582;5.298;2022-11-10T08:25:58;19.15;;;7.45;;
33826;SDS011;20128;45.582;5.298;2022-11-10T08:28:25;16.35;;;7.68;;
33826;SDS011;20128;45.582;5.298;2022-11-10T08:30:52;15.50;;;7.45;;
33826;SDS011;20128;45.582;5.298;2022-11-10T08:33:19;16.88;;;7.07;;
33826;SDS011;20128;45.582;5.298;2022-11-10T08:35:46;20.73;;;7.32;;
33826;SDS011;20128;45.582;5.298;2022-11-10T08:38:14;12.93;;;7.18;;
33826;SDS011;20128;45.582;5.298;2022-11-10T08:40:41;11.95;;;7.13;;
33826;SDS011;20128;45.582;5.298;2022-11-10T08:43:08;11.48;;;6.55;;
33826;SDS011;20128;45.582;5.298;2022-11-10T08:45:35;14.82;;;6.20;;
33826;SDS011;20128;45.582;5.298;2022-11-10T08:48:03;11.77;;;5.72;;
33826;SDS011;20128;45.582;5.298;2022-11-10T08:50:34;18.23;;;5.82;;
33826;SDS011;20128;45.582;5.298;2022-11-10T08:53:04;13.50;;;6.78;;
33826;SDS011;20128;45.582;5.298;2022-11-10T08:55:33;13.90;;;7.25;;
33826;SDS011;20128;45.582;5.298;2022-11-10T08:57:59;13.45;;;6.90;;
33826;SDS011;20128;45.582;5.298;2022-11-10T09:00:27;15.52;;;7.45;;
33826;SDS011;20128;45.582;5.298;2022-11-10T09:03:16;13.60;;;6.53;;
33826;SDS011;20128;45.582;5.298;2022-11-10T09:05:42;15.20;;;7.07;;
33826;SDS011;20128;45.582;5.298;2022-11-10T09:08:09;16.20;;;6.72;;
33826;SDS011;20128;45.582;5.298;2022-11-10T09:10:36;15.57;;;6.13;;
33826;SDS011;20128;45.582;5.298;2022-11-10T09:13:03;11.63;;;5.70;;
33826;SDS011;20128;45.582;5.298;2022-11-10T09:15:30;15.77;;;6.47;;
33826;SDS011;20128;45.582;5.298;2022-11-10T09:17:58;15.45;;;6.30;;
33826;SDS011;20128;45.582;5.298;2022-11-10T09:20:29;12.65;;;6.28;;
33826;SDS011;20128;45.582;5.298;2022-11-10T09:22:55;8.35;;;5.60;;
33826;SDS011;20128;45.582;5.298;2022-11-10T09:25:24;12.27;;;6.10;;
33826;SDS011;20128;45.582;5.298;2022-11-10T09:27:49;12.43;;;5.97;;
33826;SDS011;20128;45.582;5.298;2022-11-10T09:30:15;12.55;;;6.13;;
33826;SDS011;20128;45.582;5.298;2022-11-10T09:32:41;13.45;;;6.55;;
33826;SDS011;20128;45.582;5.298;2022-11-10T09:35:10;14.73;;;5.75;;
33826;SDS011;20128;45.582;5.298;2022-11-10T09:37:38;12.75;;;6.13;;
33826;SDS011;20128;45.582;5.298;2022-11-10T09:40:04;9.05;;;6.10;;
33826;SDS011;20128;45.582;5.298;2022-11-10T09:42:34;12.80;;;6.50;;
33826;SDS011;20128;45.582;5.298;2022-11-10T09:45:09;16.55;;;6.85;;
33826;SDS011;20128;45.582;5.298;2022-11-10T09:47:47;13.40;;;7.18;;
33826;SDS011;20128;45.582;5.298;2022-11-10T09:50:25;15.63;;;7.47;;
33826;SDS011;20128;45.582;5.298;2022-11-10T09:52:55;12.85;;;7.78;;
33826;SDS011;20128;45.582;5.298;2022-11-10T09:55:30;14.02;;;7.75;;
33826;SDS011;20128;45.582;5.298;2022-11-10T09:57:57;14.55;;;7.47;;
33826;SDS011;20128;45.582;5.298;2022-11-10T10:00:24;19.25;;;8.23;;
33826;SDS011;20128;45.582;5.298;2022-11-10T10:02:53;15.50;;;7.00;;
33826;SDS011;20128;45.582;5.298;2022-11-10T10:11:34;17.17;;;7.57;;
33826;SDS011;20128;45.582;5.298;2022-11-10T10:14:27;11.77;;;7.47;;
33826;SDS011;20128;45.582;5.298;2022-11-10T10:17:03;14.35;;;7.60;;
33826;SDS011;20128;45.582;5.298;2022-11-10T10:19:40;20.98;;;7.78;;
33826;SDS011;20128;45.582;5.298;2022-11-10T10:22:34;15.50;;;7.57;;
33826;SDS011;20128;45.582;5.298;2022-11-10T10:25:21;15.15;;;8.85;;
33826;SDS011;20128;45.582;5.298;2022-11-10T10:27:50;21.90;;;11.07;;
33826;SDS011;20128;45.582;5.298;2022-11-10T10:30:35;25.58;;;12.82;;
33826;SDS011;20128;45.582;5.298;2022-11-10T10:33:14;22.85;;;9.80;;
33826;SDS011;20128;45.582;5.298;2022-11-10T10:35:42;19.55;;;8.93;;
33826;SDS011;20128;45.582;5.298;2022-11-10T10:38:13;17.35;;;8.57;;
33826;SDS011;20128;45.582;5.298;2022-11-10T10:40:44;13.45;;;7.95;;
33826;SDS011;20128;45.582;5.298;2022-11-10T10:43:13;12.27;;;7.63;;
33826;SDS011;20128;45.582;5.298;2022-11-10T10:45:38;15.07;;;8.73;;
33826;SDS011;20128;45.582;5.298;2022-11-10T10:48:28;17.65;;;8.02;;
33826;SDS011;20128;45.582;5.298;2022-11-10T10:50:53;14.70;;;8.45;;
33826;SDS011;20128;45.582;5.298;2022-11-10T10:55:53;13.02;;;8.25;;
33826;SDS011;20128;45.582;5.298;2022-11-10T11:06:27;21.63;;;10.10;;
33826;SDS011;20128;45.582;5.298;2022-11-10T11:13:53;24.73;;;11.80;;
33826;SDS011;20128;45.582;5.298;2022-11-10T11:16:50;18.63;;;10.00;;
33826;SDS011;20128;45.582;5.298;2022-11-10T11:27:20;19.45;;;9.00;;
33826;SDS011;20128;45.582;5.298;2022-11-10T11:55:10;12.55;;;5.90;;
33826;SDS011;20128;45.582;5.298;2022-11-10T12:01:09;13.95;;;5.80;;
33826;SDS011;20128;45.582;5.298;2022-11-10T12:03:59;15.73;;;6.32;;
33826;SDS011;20128;45.582;5.298;2022-11-10T12:29:32;12.05;;;5.30;;
33826;SDS011;20128;45.582;5.298;2022-11-10T12:32:15;11.25;;;5.05;;
33826;SDS011;20128;45.582;5.298;2022-11-10T12:34:51;14.02;;;7.82;;
33826;SDS011;20128;45.582;5.298;2022-11-10T12:37:24;7.30;;;4.47;;
33826;SDS011;20128;45.582;5.298;2022-11-10T12:40:01;16.25;;;5.13;;
33826;SDS011;20128;45.582;5.298;2022-11-10T12:42:59;9.23;;;4.15;;
33826;SDS011;20128;45.582;5.298;2022-11-10T12:45:50;9.45;;;4.65;;
33826;SDS011;20128;45.582;5.298;2022-11-10T12:48:20;7.30;;;4.38;;
33826;SDS011;20128;45.582;5.298;2022-11-10T12:50:49;10.20;;;3.83;;
33826;SDS011;20128;45.582;5.298;2022-11-10T12:53:24;8.65;;;3.83;;
33826;SDS011;20128;45.582;5.298;2022-11-10T12:56:36;5.65;;;3.83;;
33826;SDS011;20128;45.582;5.298;2022-11-10T13:01:45;14.57;;;4.30;;
33826;SDS011;20128;45.582;5.298;2022-11-10T13:04:14;9.13;;;4.60;;
33826;SDS011;20128;45.582;5.298;2022-11-10T13:06:45;11.73;;;4.78;;
33826;SDS011;20128;45.582;5.298;2022-11-10T13:09:22;8.30;;;3.92;;
33826;SDS011;20128;45.582;5.298;2022-11-10T13:14:34;10.02;;;3.67;;
33826;SDS011;20128;45.582;5.298;2022-11-10T13:17:04;11.60;;;4.85;;
33826;SDS011;20128;45.582;5.298;2022-11-10T13:24:32;6.97;;;3.38;;
33826;SDS011;20128;45.582;5.298;2022-11-10T13:27:04;6.90;;;3.25;;
33826;SDS011;20128;45.582;5.298;2022-11-10T13:29:58;6.25;;;3.30;;
33826;SDS011;20128;45.582;5.298;2022-11-10T13:32:32;10.98;;;3.55;;
33826;SDS011;20128;45.582;5.298;2022-11-10T13:37:52;8.13;;;3.70;;
33826;SDS011;20128;45.582;5.298;2022-11-10T13:45:26;6.97;;;2.53;;
33826;SDS011;20128;45.582;5.298;2022-11-10T13:50:46;6.32;;;2.30;;
33826;SDS011;20128;45.582;5.298;2022-11-10T13:58:43;5.80;;;2.70;;
33826;SDS011;20128;45.582;5.298;2022-11-10T14:06:10;7.47;;;3.00;;
33826;SDS011;20128;45.582;5.298;2022-11-10T14:09:18;7.45;;;2.75;;
33826;SDS011;20128;45.582;5.298;2022-11-10T14:11:58;5.43;;;2.75;;
33826;SDS011;20128;45.582;5.298;2022-11-10T14:14:48;7.68;;;3.35;;
33826;SDS011;20128;45.582;5.298;2022-11-10T14:17:28;6.38;;;3.15;;
33826;SDS011;20128;45.582;5.298;2022-11-10T14:20:00;6.13;;;3.63;;
33826;SDS011;20128;45.582;5.298;2022-11-10T14:22:32;9.43;;;3.55;;
33826;SDS011;20128;45.582;5.298;2022-11-10T14:27:31;5.53;;;3.00;;
33826;SDS011;20128;45.582;5.298;2022-11-10T14:30:09;8.75;;;3.15;;
33826;SDS011;20128;45.582;5.298;2022-11-10T14:32:52;8.00;;;2.80;;
33826;SDS011;20128;45.582;5.298;2022-11-10T14:35:35;9.75;;;3.28;;
33826;SDS011;20128;45.582;5.298;2022-11-10T14:40:47;5.03;;;3.13;;
33826;SDS011;20128;45.582;5.298;2022-11-10T14:46:22;8.40;;;3.80;;
33826;SDS011;20128;45.582;5.298;2022-11-10T14:48:49;6.95;;;4.05;;
33826;SDS011;20128;45.582;5.298;2022-11-10T14:51:21;8.95;;;3.80;;
33826;SDS011;20128;45.582;5.298;2022-11-10T14:53:48;5.00;;;3.42;;
33826;SDS011;20128;45.582;5.298;2022-11-10T14:56:18;4.80;;;2.80;;
33826;SDS011;20128;45.582;5.298;2022-11-10T14:58:47;7.82;;;3.70;;
33826;SDS011;20128;45.582;5.298;2022-11-10T15:03:57;6.40;;;3.40;;
33826;SDS011;20128;45.582;5.298;2022-11-10T15:06:24;7.75;;;3.85;;
33826;SDS011;20128;45.582;5.298;2022-11-10T15:08:50;7.45;;;3.55;;
33826;SDS011;20128;45.582;5.298;2022-11-10T15:13:59;9.05;;;3.90;;
33826;SDS011;20128;45.582;5.298;2022-11-10T15:16:29;9.13;;;3.60;;
33826;SDS011;20128;45.582;5.298;2022-11-10T15:19:23;12.27;;;4.28;;
33826;SDS011;20128;45.582;5.298;2022-11-10T15:24:28;7.82;;;3.75;;
33826;SDS011;20128;45.582;5.298;2022-11-10T15:26:54;15.40;;;3.45;;
33826;SDS011;20128;45.582;5.298;2022-11-10T15:29:20;7.40;;;3.33;;
33826;SDS011;20128;45.582;5.298;2022-11-10T15:31:47;5.20;;;2.83;;
33826;SDS011;20128;45.582;5.298;2022-11-10T15:34:38;8.98;;;3.63;;
33826;SDS011;20128;45.582;5.298;2022-11-10T15:37:25;11.50;;;3.33;;
33826;SDS011;20128;45.582;5.298;2022-11-10T15:43:06;10.18;;;3.58;;
33826;SDS011;20128;45.582;5.298;2022-11-10T15:45:32;10.63;;;3.08;;
33826;SDS011;20128;45.582;5.298;2022-11-10T15:47:58;8.05;;;2.88;;
33826;SDS011;20128;45.582;5.298;2022-11-10T15:50:24;5.15;;;3.00;;
33826;SDS011;20128;45.582;5.298;2022-11-10T15:52:49;9.30;;;3.58;;
33826;SDS011;20128;45.582;5.298;2022-11-10T15:55:21;10.85;;;3.33;;
33826;SDS011;20128;45.582;5.298;2022-11-10T15:57:48;8.40;;;3.33;;
33826;SDS011;20128;45.582;5.298;2022-11-10T16:00:13;10.27;;;3.85;;
33826;SDS011;20128;45.582;5.298;2022-11-10T16:02:40;8.65;;;3.85;;
33826;SDS011;20128;45.582;5.298;2022-11-10T16:05:10;11.05;;;3.83;;
33826;SDS011;20128;45.582;5.298;2022-11-10T16:07:36;9.80;;;4.38;;
33826;SDS011;20128;45.582;5.298;2022-11-10T16:10:03;7.22;;;4.00;;
33826;SDS011;20128;45.582;5.298;2022-11-10T16:12:29;9.15;;;3.97;;
33826;SDS011;20128;45.582;5.298;2022-11-10T16:14:55;10.35;;;3.67;;
33826;SDS011;20128;45.582;5.298;2022-11-10T16:17:21;10.60;;;3.88;;
33826;SDS011;20128;45.582;5.298;2022-11-10T16:19:47;10.50;;;4.13;;
33826;SDS011;20128;45.582;5.298;2022-11-10T16:22:12;11.07;;;4.78;;
33826;SDS011;20128;45.582;5.298;2022-11-10T16:24:38;11.82;;;4.93;;
33826;SDS011;20128;45.582;5.298;2022-11-10T16:27:05;7.00;;;3.90;;
33826;SDS011;20128;45.582;5.298;2022-11-10T16:29:35;5.10;;;3.70;;
33826;SDS011;20128;45.582;5.298;2022-11-10T16:32:01;6.22;;;3.75;;
33826;SDS011;20128;45.582;5.298;2022-11-10T16:34:27;8.77;;;4.20;;
33826;SDS011;20128;45.582;5.298;2022-11-10T16:36:53;8.75;;;3.58;;
33826;SDS011;20128;45.582;5.298;2022-11-10T16:39:19;8.38;;;3.65;;
33826;SDS011;20128;45.582;5.298;2022-11-10T16:41:45;9.75;;;4.25;;
33826;SDS011;20128;45.582;5.298;2022-11-10T16:44:11;14.75;;;5.03;;
33826;SDS011;20128;45.582;5.298;2022-11-10T16:46:39;11.98;;;3.92;;
33826;SDS011;20128;45.582;5.298;2022-11-10T16:49:20;10.77;;;4.60;;
33826;SDS011;20128;45.582;5.298;2022-11-10T16:51:59;9.88;;;3.63;;
33826;SDS011;20128;45.582;5.298;2022-11-10T16:54:31;12.23;;;4.35;;
33826;SDS011;20128;45.582;5.298;2022-11-10T16:56:57;7.55;;;5.03;;
33826;SDS011;20128;45.582;5.298;2022-11-10T16:59:23;10.50;;;5.10;;
33826;SDS011;20128;45.582;5.298;2022-11-10T17:01:49;9.50;;;4.35;;
33826;SDS011;20128;45.582;5.298;2022-11-10T17:04:17;8.65;;;4.55;;